Time;durP1;ratioP1;P1;durP2;ratioP2;P2;SDS_P1;SDS_P2;PMS_P1;PMS_P2;Temp;Humidity;BMP_temperature;BMP_pressure;BME280_temperature;BME280_humidity;BME280_pressure;Samples;Min_cycle;Max_cycle;Signal;HPM_P1;HPM_P2
2022/01/15 00:00:08;;;;;;;11.63;3.37;;;3.20;99.90;;;;;;5034877;28;20228;-70
2022/01/15 00:02:59;;;;;;;9.90;3.33;;;3.10;99.90;;;;;;5049274;28;20311;-69
2022/01/15 00:05:48;;;;;;;10.57;3.13;;;3.10;99.90;;;;;;5051981;28;20221;-69
2022/01/15 00:08:36;;;;;;;11.60;3.40;;;3.10;99.90;;;;;;5049713;28;20222;-70
2022/01/15 00:11:25;;;;;;;16.10;3.10;;;3.10;99.90;;;;;;5054447;28;20214;-71
2022/01/15 00:14:25;;;;;;;12.80;3.53;;;3.10;99.90;;;;;;5048240;28;20920;-71
2022/01/15 00:17:19;;;;;;;12.20;3.10;;;3.10;99.90;;;;;;5038131;28;20238;-72
2022/01/15 00:20:09;;;;;;;10.60;3.20;;;3.10;99.90;;;;;;5050171;28;20297;-73
2022/01/15 00:23:00;;;;;;;11.17;3.13;;;3.10;99.90;;;;;;5035152;28;20220;-70
2022/01/15 00:25:49;;;;;;;9.53;3.00;;;3.10;99.90;;;;;;5036531;28;20212;-72
2022/01/15 00:28:37;;;;;;;11.67;2.97;;;3.00;99.90;;;;;;5037640;28;20220;-71
2022/01/15 00:31:28;;;;;;;11.47;2.90;;;3.00;99.90;;;;;;5051687;28;20221;-71
2022/01/15 00:34:16;;;;;;;11.20;3.50;;;3.00;99.90;;;;;;5050202;28;20224;-71
2022/01/15 00:37:05;;;;;;;15.57;3.37;;;3.00;99.90;;;;;;5049722;28;20916;-72
2022/01/15 00:39:53;;;;;;;11.37;3.17;;;2.90;99.90;;;;;;5050161;28;20228;-71
2022/01/15 00:42:43;;;;;;;9.43;3.10;;;3.00;99.90;;;;;;5050837;28;20310;-72
2022/01/15 00:45:33;;;;;;;12.10;3.70;;;3.00;99.90;;;;;;5048085;28;21162;-72
2022/01/15 00:48:23;;;;;;;14.70;4.83;;;2.90;99.90;;;;;;5048841;28;20566;-71
2022/01/15 00:51:11;;;;;;;18.80;5.90;;;3.00;99.90;;;;;;5050848;28;20220;-71
2022/01/15 00:54:00;;;;;;;14.47;4.43;;;2.90;99.90;;;;;;5036685;28;20232;-71
2022/01/15 00:56:49;;;;;;;10.20;3.60;;;2.90;99.90;;;;;;5046697;28;20251;-71
2022/01/15 00:59:37;;;;;;;10.13;3.37;;;2.80;99.90;;;;;;5049413;28;20224;-72
2022/01/15 01:02:26;;;;;;;14.07;3.47;;;2.80;99.90;;;;;;5046690;28;20235;-71
2022/01/15 01:05:16;;;;;;;10.57;3.83;;;2.80;99.90;;;;;;5050725;28;20239;-70
2022/01/15 01:08:05;;;;;;;11.70;3.67;;;2.80;99.90;;;;;;5048624;28;20720;-71
2022/01/15 01:10:56;;;;;;;16.43;3.40;;;2.80;99.90;;;;;;5052925;28;20231;-70
2022/01/15 01:20:09;;;;;;;13.03;4.57;;;2.80;99.90;;;;;;5016232;28;20224;-70
2022/01/15 01:22:59;;;;;;;14.47;3.80;;;2.80;99.90;;;;;;5052244;28;20220;-71
2022/01/15 01:25:51;;;;;;;10.03;3.73;;;2.80;99.90;;;;;;5048724;28;20229;-71
2022/01/15 01:28:44;;;;;;;10.60;4.37;;;2.70;99.90;;;;;;5048554;28;20227;-70
2022/01/15 01:31:37;;;;;;;13.37;5.13;;;2.80;99.90;;;;;;5049256;28;20221;-71
2022/01/15 01:34:28;;;;;;;14.33;4.43;;;2.80;99.90;;;;;;5048062;28;20217;-71
2022/01/15 01:37:24;;;;;;;15.23;4.70;;;2.70;99.90;;;;;;5049996;28;20236;-70
2022/01/15 01:40:21;;;;;;;17.80;4.50;;;2.60;99.90;;;;;;5032591;28;20220;-71
2022/01/15 01:43:39;;;;;;;12.70;4.10;;;2.70;99.90;;;;;;5043034;28;20228;-70
2022/01/15 01:49:29;;;;;;;16.90;5.03;;;2.60;99.90;;;;;;5035877;28;20226;-71
2022/01/15 01:52:17;;;;;;;16.07;5.10;;;2.60;99.90;;;;;;5034578;28;20235;-71
2022/01/15 01:55:08;;;;;;;14.60;4.47;;;2.50;99.90;;;;;;5032354;28;20217;-71
2022/01/15 01:58:00;;;;;;;13.67;5.33;;;2.50;99.90;;;;;;5051770;28;20234;-70
2022/01/15 02:00:48;;;;;;;14.57;4.87;;;2.50;99.90;;;;;;5049490;28;20779;-70
2022/01/15 02:03:38;;;;;;;14.57;4.80;;;2.50;99.90;;;;;;5034776;28;20339;-71
2022/01/15 02:06:26;;;;;;;16.27;5.43;;;2.40;99.90;;;;;;5049438;28;20263;-69
2022/01/15 02:09:16;;;;;;;16.67;5.83;;;2.40;99.90;;;;;;5044273;28;20225;-68
2022/01/15 02:12:06;;;;;;;18.90;5.40;;;2.40;99.90;;;;;;5051816;28;20224;-68
2022/01/15 02:14:55;;;;;;;14.90;5.37;;;2.40;99.90;;;;;;5049076;28;20220;-70
2022/01/15 02:17:46;;;;;;;17.30;5.00;;;2.40;99.90;;;;;;5050741;28;20225;-69
2022/01/15 02:21:00;;;;;;;18.93;4.87;;;2.30;99.90;;;;;;5036681;28;20755;-69
2022/01/15 02:23:47;;;;;;;17.13;5.13;;;2.30;99.90;;;;;;5052271;28;20228;-68
2022/01/15 02:26:38;;;;;;;18.43;5.77;;;2.30;99.90;;;;;;5041376;28;20225;-71
2022/01/15 02:29:26;;;;;;;17.50;5.30;;;2.30;99.90;;;;;;5049768;28;20221;-71
2022/01/15 02:32:15;;;;;;;23.40;5.30;;;2.30;99.90;;;;;;5037138;28;20235;-71
2022/01/15 02:35:05;;;;;;;15.40;4.93;;;2.20;99.90;;;;;;5031431;28;20232;-70
2022/01/15 02:37:55;;;;;;;13.50;4.63;;;2.20;99.90;;;;;;5032526;28;20224;-70
2022/01/15 02:40:45;;;;;;;20.23;5.37;;;2.20;99.90;;;;;;5024686;28;20216;-72
2022/01/15 02:43:35;;;;;;;18.93;4.67;;;2.20;99.90;;;;;;5047028;28;20221;-72
2022/01/15 02:46:36;;;;;;;17.53;4.87;;;2.10;99.90;;;;;;5032463;28;20224;-70
2022/01/15 02:49:25;;;;;;;13.77;4.87;;;2.20;99.90;;;;;;5048846;28;20223;-69
2022/01/15 02:52:14;;;;;;;17.43;5.07;;;2.10;99.90;;;;;;5029435;28;20707;-71
2022/01/15 02:55:04;;;;;;;16.87;4.27;;;2.10;99.90;;;;;;5049668;28;20799;-71
2022/01/15 02:57:53;;;;;;;12.63;4.33;;;2.10;99.90;;;;;;5036425;28;20224;-70
2022/01/15 03:00:42;;;;;;;13.20;4.03;;;2.10;99.90;;;;;;5047467;28;20721;-70
2022/01/15 03:03:31;;;;;;;15.93;4.30;;;2.20;99.90;;;;;;5047622;28;20727;-70
2022/01/15 03:06:26;;;;;;;11.80;3.80;;;2.10;99.90;;;;;;5051887;28;20909;-70
2022/01/15 03:09:14;;;;;;;17.87;4.50;;;2.10;99.90;;;;;;5030576;28;20373;-71
2022/01/15 03:12:05;;;;;;;14.53;4.07;;;2.10;99.90;;;;;;5032873;28;20232;-70
2022/01/15 03:14:59;;;;;;;18.17;3.87;;;2.10;99.90;;;;;;5035722;28;20226;-70
2022/01/15 03:17:49;;;;;;;12.17;3.97;;;2.20;99.90;;;;;;5040200;28;20224;-70
2022/01/15 03:20:38;;;;;;;13.57;4.20;;;2.00;99.90;;;;;;5037872;28;20278;-70
2022/01/15 03:23:26;;;;;;;16.97;4.50;;;2.10;99.90;;;;;;5052079;28;20235;-70
2022/01/15 03:26:15;;;;;;;16.50;4.23;;;2.10;99.90;;;;;;5029525;28;20508;-71
2022/01/15 03:29:05;;;;;;;16.63;4.30;;;2.00;99.90;;;;;;5050222;28;20585;-71
2022/01/15 03:31:58;;;;;;;16.63;4.50;;;2.10;99.90;;;;;;5052117;28;20234;-69
2022/01/15 03:34:47;;;;;;;19.60;4.70;;;2.10;99.90;;;;;;5053960;28;20227;-70
2022/01/15 03:37:35;;;;;;;13.43;4.43;;;2.10;99.90;;;;;;5037363;28;20346;-70
2022/01/15 03:40:24;;;;;;;16.00;4.30;;;2.00;99.90;;;;;;5050651;28;20223;-69
2022/01/15 03:43:12;;;;;;;15.13;4.57;;;2.00;99.90;;;;;;5052992;28;20696;-72
2022/01/15 03:46:03;;;;;;;17.40;5.00;;;1.90;99.90;;;;;;5036187;28;20237;-68
2022/01/15 03:48:52;;;;;;;18.10;4.53;;;1.90;99.90;;;;;;5040172;28;20609;-71
2022/01/15 03:51:41;;;;;;;18.47;5.50;;;1.80;99.90;;;;;;5038201;28;20220;-71
2022/01/15 03:54:30;;;;;;;17.33;5.07;;;1.90;99.90;;;;;;5051679;28;20225;-72
2022/01/15 03:57:18;;;;;;;14.30;4.73;;;1.80;99.90;;;;;;5035675;28;20221;-72
2022/01/15 04:00:09;;;;;;;15.33;4.97;;;1.80;99.90;;;;;;5049302;28;20228;-70
2022/01/15 04:03:03;;;;;;;17.47;4.90;;;1.80;99.90;;;;;;5052271;28;20380;-72
2022/01/15 04:05:51;;;;;;;22.83;6.50;;;1.80;99.90;;;;;;5053746;28;20302;-71
2022/01/15 04:08:40;;;;;;;18.43;4.67;;;1.80;99.90;;;;;;5051047;28;20220;-73
2022/01/15 04:11:28;;;;;;;17.03;5.07;;;1.70;99.90;;;;;;5048657;28;20768;-69
2022/01/15 04:14:17;;;;;;;17.97;5.07;;;1.70;99.90;;;;;;5050725;28;20220;-70
2022/01/15 04:17:06;;;;;;;15.97;5.07;;;1.70;99.90;;;;;;5053737;28;20229;-69
2022/01/15 04:19:58;;;;;;;20.03;4.87;;;1.70;99.90;;;;;;5038142;28;20228;-69
2022/01/15 04:22:46;;;;;;;15.90;5.17;;;1.70;99.90;;;;;;5037625;28;20743;-71
2022/01/15 04:25:35;;;;;;;17.87;4.90;;;1.60;99.90;;;;;;5050965;28;20221;-68
2022/01/15 04:28:24;;;;;;;17.70;5.07;;;1.60;99.90;;;;;;5049983;28;20242;-69
2022/01/15 04:31:13;;;;;;;18.73;5.60;;;1.60;99.90;;;;;;5049891;28;20228;-71
2022/01/15 04:34:05;;;;;;;15.93;4.73;;;1.60;99.90;;;;;;5049784;28;20846;-70
2022/01/15 04:37:00;;;;;;;16.13;5.00;;;1.60;99.90;;;;;;5034629;28;20223;-68
2022/01/15 04:39:49;;;;;;;18.07;5.37;;;1.60;99.90;;;;;;5037567;28;20723;-69
2022/01/15 04:42:38;;;;;;;17.80;5.23;;;1.60;99.90;;;;;;5037440;28;20727;-70
2022/01/15 04:45:26;;;;;;;16.73;4.80;;;1.60;99.90;;;;;;5036289;28;20228;-68
2022/01/15 04:48:15;;;;;;;16.67;4.60;;;1.60;99.90;;;;;;5036854;28;20212;-69
2022/01/15 04:51:04;;;;;;;16.77;4.63;;;1.60;99.90;;;;;;5048568;28;20232;-72
2022/01/15 04:53:54;;;;;;;17.07;5.23;;;1.60;99.90;;;;;;5033055;28;20221;-70
2022/01/15 04:56:42;;;;;;;16.93;5.37;;;1.60;99.90;;;;;;5050299;28;20566;-70
2022/01/15 04:59:31;;;;;;;20.07;4.93;;;1.50;99.90;;;;;;5037768;28;20222;-71
2022/01/15 05:02:19;;;;;;;19.03;5.00;;;1.60;99.90;;;;;;5049324;28;20228;-70
2022/01/15 05:05:09;;;;;;;21.97;5.70;;;1.60;99.90;;;;;;5051299;28;20240;-70
2022/01/15 05:07:57;;;;;;;17.57;4.80;;;1.60;99.90;;;;;;5049485;28;20225;-70
2022/01/15 05:10:48;;;;;;;16.17;4.50;;;1.60;99.90;;;;;;5047558;28;20235;-69
2022/01/15 05:13:37;;;;;;;18.57;4.63;;;1.60;99.90;;;;;;5047912;28;20227;-70
2022/01/15 05:16:26;;;;;;;15.23;4.97;;;1.50;99.90;;;;;;5036960;28;20220;-69
2022/01/15 05:19:15;;;;;;;19.43;5.20;;;1.50;99.90;;;;;;5052813;28;20230;-69
2022/01/15 05:22:04;;;;;;;16.87;4.47;;;1.50;99.90;;;;;;5049780;28;20221;-69
2022/01/15 05:24:53;;;;;;;13.43;5.03;;;1.50;99.90;;;;;;5049891;28;20220;-69
2022/01/15 05:27:43;;;;;;;19.07;5.27;;;1.50;99.90;;;;;;5047675;28;20323;-71
2022/01/15 05:30:32;;;;;;;19.17;5.63;;;1.50;99.90;;;;;;5049803;28;20771;-70
2022/01/15 05:33:21;;;;;;;15.87;5.50;;;1.50;99.90;;;;;;5036543;28;20217;-71
2022/01/15 05:36:10;;;;;;;16.83;5.03;;;1.50;99.90;;;;;;5051062;28;20220;-68
2022/01/15 05:38:58;;;;;;;16.73;6.13;;;1.50;99.90;;;;;;5036119;28;20224;-69
2022/01/15 05:41:47;;;;;;;17.03;4.23;;;1.60;99.90;;;;;;5050164;28;20220;-71
2022/01/15 05:44:37;;;;;;;15.97;5.33;;;1.50;99.90;;;;;;5046370;28;20346;-71
2022/01/15 05:47:27;;;;;;;16.17;5.23;;;1.50;99.90;;;;;;5038522;28;20997;-70
2022/01/15 05:50:15;;;;;;;17.30;4.77;;;1.50;99.90;;;;;;5049798;28;20238;-71
2022/01/15 05:53:04;;;;;;;11.33;4.53;;;1.50;99.90;;;;;;5047601;28;20220;-70
2022/01/15 05:55:53;;;;;;;14.90;4.70;;;1.50;99.90;;;;;;5033125;28;20239;-70
2022/01/15 05:58:41;;;;;;;18.73;5.20;;;1.50;99.90;;;;;;5048765;28;20229;-71
2022/01/15 06:01:32;;;;;;;17.77;4.53;;;1.50;99.90;;;;;;5036741;28;20346;-69
2022/01/15 06:04:20;;;;;;;11.80;4.23;;;1.50;99.90;;;;;;5041459;28;20738;-71
2022/01/15 06:07:09;;;;;;;18.57;4.40;;;1.50;99.90;;;;;;5049556;28;20565;-71
2022/01/15 06:09:57;;;;;;;16.17;4.43;;;1.50;99.90;;;;;;5046736;28;20834;-70
2022/01/15 06:12:46;;;;;;;17.90;5.03;;;1.50;99.90;;;;;;5048966;28;20591;-71
2022/01/15 06:15:34;;;;;;;20.63;5.47;;;1.50;99.90;;;;;;5043379;28;20217;-71
2022/01/15 06:18:24;;;;;;;12.97;3.63;;;1.50;99.90;;;;;;5049818;28;20217;-71
2022/01/15 06:21:16;;;;;;;15.07;5.23;;;1.50;99.90;;;;;;5046618;28;20225;-71
2022/01/15 06:24:05;;;;;;;13.63;4.40;;;1.40;99.90;;;;;;5046362;28;20524;-71
2022/01/15 06:26:54;;;;;;;20.03;5.17;;;1.40;99.90;;;;;;5049748;28;20232;-71
2022/01/15 06:29:42;;;;;;;16.77;4.50;;;1.40;99.90;;;;;;5051902;28;20377;-71
2022/01/15 06:32:35;;;;;;;22.17;4.53;;;1.40;99.90;;;;;;5031100;28;20311;-70
2022/01/15 06:35:26;;;;;;;19.60;5.17;;;1.40;99.90;;;;;;5049531;28;20224;-70
2022/01/15 06:38:14;;;;;;;16.17;4.37;;;1.40;99.90;;;;;;5048823;28;20235;-70
2022/01/15 06:41:03;;;;;;;18.50;4.70;;;1.40;99.90;;;;;;5037018;28;20237;-71
2022/01/15 06:43:51;;;;;;;14.43;4.70;;;1.40;99.90;;;;;;5034583;28;20884;-71
2022/01/15 06:46:40;;;;;;;19.50;4.70;;;1.30;99.90;;;;;;5048442;28;20262;-71
2022/01/15 06:49:29;;;;;;;18.93;5.23;;;1.40;99.90;;;;;;5050601;28;20235;-70
2022/01/15 06:52:20;;;;;;;15.73;3.83;;;1.40;99.90;;;;;;5047204;28;20729;-71
2022/01/15 06:55:10;;;;;;;20.80;4.77;;;1.40;99.90;;;;;;5055843;28;20233;-69
2022/01/15 06:57:59;;;;;;;18.43;4.60;;;1.40;99.90;;;;;;5058311;28;20228;-70
2022/01/15 07:00:48;;;;;;;19.57;4.40;;;1.40;99.90;;;;;;5062733;28;20224;-70
2022/01/15 07:03:36;;;;;;;15.83;4.47;;;1.40;99.90;;;;;;5056546;28;20212;-70
2022/01/15 07:06:25;;;;;;;20.03;5.33;;;1.40;99.90;;;;;;5045439;28;20250;-70
2022/01/15 07:09:15;;;;;;;20.00;4.83;;;1.40;99.90;;;;;;5054962;28;20225;-71
2022/01/15 07:12:05;;;;;;;22.33;5.30;;;1.40;99.90;;;;;;5058181;28;20224;-70
2022/01/15 07:14:53;;;;;;;16.77;4.20;;;1.40;99.90;;;;;;5055994;28;20231;-71
2022/01/15 07:17:43;;;;;;;13.77;4.70;;;1.40;99.90;;;;;;5058019;28;21497;-71
2022/01/15 07:20:35;;;;;;;16.73;3.80;;;1.50;99.90;;;;;;5041206;28;20220;-70
2022/01/15 07:23:24;;;;;;;14.97;4.67;;;1.50;99.90;;;;;;5042193;28;20251;-69
2022/01/15 07:26:14;;;;;;;12.33;4.27;;;1.50;99.90;;;;;;5045889;28;20247;-70
2022/01/15 07:29:04;;;;;;;17.53;4.60;;;1.50;99.90;;;;;;5056739;28;20228;-68
2022/01/15 07:31:53;;;;;;;17.27;5.03;;;1.50;99.90;;;;;;5045675;28;20231;-70
2022/01/15 07:34:42;;;;;;;14.43;5.33;;;1.50;99.90;;;;;;5057842;28;20247;-69
2022/01/15 07:37:31;;;;;;;20.40;5.40;;;1.60;99.90;;;;;;5044486;28;20217;-69
2022/01/15 07:40:20;;;;;;;17.60;5.13;;;1.50;99.90;;;;;;5042308;28;20236;-71
2022/01/15 07:43:10;;;;;;;18.47;5.00;;;1.60;99.90;;;;;;5045829;28;20216;-69
2022/01/15 07:46:03;;;;;;;20.63;5.77;;;1.60;99.90;;;;;;5044655;28;20750;-69
2022/01/15 07:48:52;;;;;;;18.33;5.40;;;1.60;99.90;;;;;;5058180;28;20241;-69
2022/01/15 07:51:41;;;;;;;16.77;4.73;;;1.60;99.90;;;;;;5057476;28;20218;-70
2022/01/15 07:54:29;;;;;;;19.87;5.43;;;1.50;99.90;;;;;;5056622;28;20304;-70
2022/01/15 07:57:18;;;;;;;18.30;5.30;;;1.60;99.90;;;;;;5056965;28;20244;-70
2022/01/15 08:00:09;;;;;;;16.37;5.07;;;1.60;99.90;;;;;;5058967;28;20229;-69
2022/01/15 08:02:59;;;;;;;14.30;5.43;;;1.60;99.90;;;;;;5055367;28;20220;-70
2022/01/15 08:05:48;;;;;;;16.63;4.97;;;1.70;99.90;;;;;;5057886;28;20228;-70
2022/01/15 08:08:38;;;;;;;15.80;5.30;;;1.70;99.90;;;;;;5045137;28;20268;-72
2022/01/15 08:11:26;;;;;;;17.33;5.37;;;1.70;99.90;;;;;;5059083;28;20315;-71
2022/01/15 08:14:15;;;;;;;19.37;5.90;;;1.70;99.90;;;;;;5056165;28;20224;-71
2022/01/15 08:17:05;;;;;;;15.60;5.10;;;1.70;99.90;;;;;;5055483;28;20542;-71
2022/01/15 08:19:54;;;;;;;16.93;5.57;;;1.70;99.90;;;;;;5054982;28;20224;-69
2022/01/15 08:22:44;;;;;;;21.43;6.20;;;1.70;99.90;;;;;;5038394;28;20236;-71
2022/01/15 08:25:33;;;;;;;16.20;5.30;;;1.80;99.90;;;;;;5046266;28;20596;-70
2022/01/15 08:28:23;;;;;;;14.43;5.13;;;1.80;99.90;;;;;;5042573;28;20229;-70
2022/01/15 08:31:12;;;;;;;14.13;4.83;;;1.90;99.90;;;;;;5057873;28;20229;-70
2022/01/15 08:34:03;;;;;;;17.13;5.50;;;1.80;99.90;;;;;;5053635;28;20239;-70
2022/01/15 08:36:51;;;;;;;17.50;4.73;;;1.90;99.90;;;;;;5046256;28;20228;-71
2022/01/15 08:39:40;;;;;;;18.87;5.67;;;1.90;99.90;;;;;;5037917;28;20229;-71
2022/01/15 08:42:29;;;;;;;17.37;5.53;;;1.90;99.90;;;;;;5038554;28;20315;-73
2022/01/15 08:45:22;;;;;;;19.30;5.53;;;2.00;99.90;;;;;;5052902;28;20974;-70
2022/01/15 08:48:11;;;;;;;21.03;5.90;;;1.90;99.90;;;;;;5053393;28;20278;-70
2022/01/15 08:51:01;;;;;;;17.40;5.77;;;2.00;99.90;;;;;;5052236;28;20216;-72
2022/01/15 08:53:50;;;;;;;15.30;5.77;;;2.00;99.90;;;;;;5038688;28;20235;-73
2022/01/15 08:56:39;;;;;;;18.30;6.20;;;2.00;99.90;;;;;;5040763;28;21706;-73
2022/01/15 08:59:28;;;;;;;20.07;5.90;;;2.10;99.90;;;;;;5054988;28;20220;-72
2022/01/15 09:02:16;;;;;;;18.57;5.27;;;2.10;99.90;;;;;;5041308;28;20227;-73
2022/01/15 09:05:06;;;;;;;18.43;5.80;;;2.20;99.90;;;;;;5038929;28;20693;-71
2022/01/15 09:07:57;;;;;;;16.70;6.53;;;2.20;99.90;;;;;;5042138;28;20276;-72
2022/01/15 09:10:45;;;;;;;17.10;5.67;;;2.20;99.90;;;;;;5055142;28;20229;-71
2022/01/15 09:13:34;;;;;;;14.30;5.03;;;2.20;99.90;;;;;;5041196;28;20220;-71
2022/01/15 09:16:23;;;;;;;21.60;5.33;;;2.20;99.90;;;;;;5040208;28;20231;-71
2022/01/15 09:19:12;;;;;;;16.27;4.80;;;2.30;99.90;;;;;;5039503;28;20216;-70
2022/01/15 09:22:05;;;;;;;23.83;5.40;;;2.30;99.90;;;;;;5043247;28;20307;-70
2022/01/15 09:24:55;;;;;;;19.07;5.60;;;2.30;99.90;;;;;;5053399;28;20240;-71
2022/01/15 09:30:50;;;;;;;16.90;5.80;;;2.40;99.90;;;;;;5055603;28;20276;-72
2022/01/15 09:33:39;;;;;;;15.20;5.37;;;2.40;99.90;;;;;;5040753;28;20225;-69
2022/01/15 09:36:28;;;;;;;13.13;5.03;;;2.40;99.90;;;;;;5048158;28;20220;-73
2022/01/15 09:39:18;;;;;;;15.67;4.87;;;2.60;99.90;;;;;;5057144;28;20220;-73
2022/01/15 09:42:11;;;;;;;15.73;5.33;;;2.70;99.90;;;;;;5039301;28;20238;-71
2022/01/15 09:45:01;;;;;;;16.10;5.83;;;2.60;99.90;;;;;;5056179;28;20580;-71
2022/01/15 09:47:56;;;;;;;22.83;7.67;;;2.60;99.90;;;;;;5059185;28;20317;-70
2022/01/15 09:50:46;;;;;;;17.53;5.07;;;2.70;99.90;;;;;;5040753;28;20219;-72
2022/01/15 09:53:35;;;;;;;18.53;6.53;;;2.60;99.90;;;;;;5056476;28;21581;-72
2022/01/15 09:56:24;;;;;;;16.33;5.40;;;2.80;99.90;;;;;;5059263;28;20220;-72
2022/01/15 09:59:14;;;;;;;22.63;6.23;;;2.80;99.90;;;;;;5042755;28;20665;-71
2022/01/15 10:02:04;;;;;;;19.53;5.80;;;2.90;99.90;;;;;;5056995;28;20228;-71
2022/01/15 10:04:54;;;;;;;18.93;5.93;;;2.90;99.90;;;;;;5056311;28;20220;-71
2022/01/15 10:07:56;;;;;;;15.83;5.00;;;3.00;99.90;;;;;;5043953;28;20330;-71
2022/01/15 10:10:48;;;;;;;11.63;4.73;;;3.10;99.90;;;;;;5054005;28;20208;-72
2022/01/15 10:13:44;;;;;;;17.03;5.03;;;3.10;99.90;;;;;;5042582;28;20227;-72
2022/01/15 10:16:34;;;;;;;15.00;5.17;;;3.10;99.90;;;;;;5054502;28;20242;-72
2022/01/15 10:19:31;;;;;;;16.77;5.10;;;3.20;99.90;;;;;;5057672;28;20213;-70
2022/01/15 10:22:22;;;;;;;13.13;4.83;;;3.20;99.90;;;;;;5053381;28;20232;-70
2022/01/15 10:25:15;;;;;;;19.13;5.23;;;3.20;99.90;;;;;;5043871;28;20223;-72
2022/01/15 10:28:04;;;;;;;23.33;5.60;;;3.40;99.90;;;;;;5056270;28;20262;-72
2022/01/15 10:30:53;;;;;;;15.13;5.70;;;3.40;99.90;;;;;;5055381;28;20678;-71
2022/01/15 10:33:43;;;;;;;19.20;6.07;;;3.30;99.90;;;;;;5053712;28;20236;-71
2022/01/15 10:36:33;;;;;;;28.70;9.87;;;3.40;99.90;;;;;;5054314;28;20236;-72
2022/01/15 10:39:22;;;;;;;16.77;6.33;;;3.50;99.90;;;;;;5055269;28;20733;-72
2022/01/15 10:42:15;;;;;;;27.13;10.43;;;3.50;99.90;;;;;;5040588;28;20965;-72
2022/01/15 10:45:10;;;;;;;25.87;8.73;;;3.60;99.90;;;;;;5056692;28;20644;-70
2022/01/15 10:48:02;;;;;;;23.17;8.47;;;3.60;99.90;;;;;;5055502;28;20235;-73
2022/01/15 10:50:58;;;;;;;16.77;5.80;;;3.90;99.90;;;;;;5056369;28;20700;-72
2022/01/15 10:54:02;;;;;;;14.90;6.03;;;3.90;99.90;;;;;;5056186;28;20254;-72
2022/01/15 10:57:06;;;;;;;21.27;6.33;;;3.90;99.90;;;;;;5055172;28;20231;-72
2022/01/15 10:59:59;;;;;;;16.90;6.23;;;3.90;99.90;;;;;;5054585;28;20213;-71
2022/01/15 11:02:49;;;;;;;15.43;5.63;;;4.00;99.90;;;;;;5041182;28;20224;-71
2022/01/15 11:05:39;;;;;;;14.00;5.73;;;4.10;99.90;;;;;;5056279;28;20565;-73
2022/01/15 11:08:34;;;;;;;17.77;5.57;;;4.10;99.90;;;;;;5056341;28;20780;-70
2022/01/15 11:11:23;;;;;;;16.37;5.13;;;4.10;99.90;;;;;;5054161;28;20241;-71
2022/01/15 11:14:12;;;;;;;16.00;5.60;;;4.10;99.90;;;;;;5041378;28;20225;-70
2022/01/15 11:17:01;;;;;;;23.17;7.10;;;4.10;99.90;;;;;;5053435;28;20756;-72
2022/01/15 11:19:53;;;;;;;20.00;8.53;;;4.00;99.90;;;;;;5051454;28;20230;-72
2022/01/15 11:22:43;;;;;;;12.23;5.43;;;3.90;99.90;;;;;;5039826;28;20787;-71
2022/01/15 11:25:34;;;;;;;15.00;5.30;;;4.00;99.90;;;;;;5040654;28;20821;-70
2022/01/15 11:28:24;;;;;;;14.77;5.23;;;4.00;99.90;;;;;;5050887;28;20231;-72
2022/01/15 11:31:16;;;;;;;15.13;5.47;;;4.20;99.90;;;;;;5035687;28;20227;-72
2022/01/15 11:34:07;;;;;;;16.93;5.20;;;4.10;99.90;;;;;;5039294;28;20250;-71
2022/01/15 11:36:55;;;;;;;12.80;4.80;;;4.20;99.90;;;;;;5039779;28;21134;-70
2022/01/15 11:39:44;;;;;;;16.07;5.40;;;4.30;99.90;;;;;;5043838;28;20221;-73
2022/01/15 11:42:35;;;;;;;15.50;5.27;;;4.20;99.90;;;;;;5047052;28;20238;-71
2022/01/15 11:45:37;;;;;;;16.93;5.57;;;4.10;99.90;;;;;;5044875;28;20250;-72
2022/01/15 11:48:33;;;;;;;16.13;7.93;;;4.30;99.90;;;;;;5048222;28;20637;-73
2022/01/15 11:51:28;;;;;;;12.13;4.53;;;4.30;99.90;;;;;;5045502;28;20218;-76
2022/01/15 11:54:17;;;;;;;16.80;5.03;;;4.20;99.90;;;;;;5046484;28;20216;-73
2022/01/15 11:57:20;;;;;;;16.13;5.10;;;4.30;99.90;;;;;;5058585;28;20226;-73
2022/01/15 12:00:18;;;;;;;15.83;5.20;;;4.20;99.90;;;;;;5045762;28;20278;-72
2022/01/15 12:03:09;;;;;;;18.07;5.10;;;4.20;99.90;;;;;;5057745;28;20756;-74
2022/01/15 12:06:01;;;;;;;23.13;5.50;;;4.20;99.90;;;;;;5060576;28;20230;-73
2022/01/15 12:08:49;;;;;;;14.33;5.07;;;4.20;99.90;;;;;;5044372;28;20230;-71
2022/01/15 12:11:38;;;;;;;18.10;5.03;;;4.30;99.90;;;;;;5062607;28;22004;-71
2022/01/15 12:14:47;;;;;;;13.07;4.83;;;4.40;99.90;;;;;;5056275;28;20220;-70
2022/01/15 12:17:39;;;;;;;18.00;5.40;;;4.40;99.90;;;;;;5059592;28;20226;-69
2022/01/15 12:20:34;;;;;;;12.67;5.87;;;4.40;99.90;;;;;;5056248;28;20220;-72
2022/01/15 12:23:28;;;;;;;15.70;5.03;;;4.40;99.90;;;;;;5058615;28;20549;-71
2022/01/15 12:26:16;;;;;;;17.77;5.20;;;4.60;99.90;;;;;;5045626;28;20220;-70
2022/01/15 12:29:05;;;;;;;14.87;5.30;;;4.60;99.90;;;;;;5056409;28;20711;-72
2022/01/15 12:31:54;;;;;;;14.40;5.10;;;4.60;99.90;;;;;;5060260;28;20224;-71
2022/01/15 12:34:46;;;;;;;14.57;4.50;;;4.60;99.90;;;;;;5059176;28;20428;-73
2022/01/15 12:37:35;;;;;;;16.97;4.50;;;4.60;99.90;;;;;;5057896;28;20224;-70
2022/01/15 12:40:29;;;;;;;14.07;4.77;;;4.50;99.90;;;;;;5058829;28;20337;-71
2022/01/15 12:43:19;;;;;;;16.20;5.70;;;4.40;99.90;;;;;;5056019;28;20283;-72
2022/01/15 12:46:13;;;;;;;17.90;5.47;;;4.30;99.90;;;;;;5054756;28;20750;-74
2022/01/15 12:49:02;;;;;;;14.30;4.97;;;4.20;99.90;;;;;;5045305;28;20484;-72
2022/01/15 12:52:08;;;;;;;15.87;6.20;;;4.10;99.90;;;;;;5054857;28;20234;-73
2022/01/15 12:55:00;;;;;;;13.60;5.17;;;4.00;99.90;;;;;;5042416;28;20292;-72
2022/01/15 12:57:51;;;;;;;17.13;5.50;;;4.00;99.90;;;;;;5043835;28;20746;-71
2022/01/15 13:00:40;;;;;;;15.53;4.37;;;4.10;99.90;;;;;;5044516;28;20226;-72
2022/01/15 13:03:31;;;;;;;12.97;4.67;;;4.20;99.90;;;;;;5057218;28;20698;-71
2022/01/15 13:06:24;;;;;;;13.60;4.60;;;4.20;99.90;;;;;;5050056;28;20756;-71
2022/01/15 13:09:14;;;;;;;17.63;5.00;;;4.20;99.90;;;;;;5055651;28;20234;-72
2022/01/15 13:12:03;;;;;;;17.53;5.50;;;4.20;99.90;;;;;;5044324;28;20227;-71
2022/01/15 13:14:52;;;;;;;13.77;5.10;;;4.20;99.90;;;;;;5044234;28;20223;-72
2022/01/15 13:17:44;;;;;;;23.33;9.57;;;4.30;99.90;;;;;;5060051;28;20337;-73
2022/01/15 13:20:35;;;;;;;15.40;5.23;;;4.20;99.90;;;;;;5059080;28;20231;-72
2022/01/15 13:23:25;;;;;;;14.33;6.00;;;4.10;99.90;;;;;;5061675;28;20243;-73
2022/01/15 13:26:20;;;;;;;17.20;5.53;;;4.00;99.90;;;;;;5043661;28;20492;-71
2022/01/15 13:29:14;;;;;;;14.67;4.67;;;3.90;99.90;;;;;;5058939;28;20226;-73
2022/01/15 13:32:03;;;;;;;12.10;4.83;;;3.70;99.90;;;;;;5044296;28;20229;-73
2022/01/15 13:34:52;;;;;;;17.00;5.33;;;3.70;99.90;;;;;;5059459;28;20242;-73
2022/01/15 13:37:55;;;;;;;16.47;5.07;;;3.70;99.90;;;;;;5044703;28;20565;-71
2022/01/15 13:40:46;;;;;;;19.73;5.33;;;3.70;99.90;;;;;;5042409;28;20258;-73
2022/01/15 13:43:36;;;;;;;16.67;5.30;;;3.70;99.90;;;;;;5056054;28;20221;-72
2022/01/15 13:46:31;;;;;;;18.73;6.03;;;3.60;99.90;;;;;;5059588;28;20733;-72
2022/01/15 13:49:24;;;;;;;19.10;5.50;;;3.60;99.90;;;;;;5058479;28;20225;-73
2022/01/15 13:55:34;;;;;;;14.83;5.07;;;3.60;99.90;;;;;;4974380;28;20226;-73
2022/01/15 13:58:23;;;;;;;19.13;6.43;;;3.60;99.90;;;;;;4965276;28;20231;-73
2022/01/15 14:01:25;;;;;;;14.83;5.40;;;3.60;99.90;;;;;;5030164;28;20229;-74
2022/01/15 14:04:25;;;;;;;18.87;5.93;;;3.60;99.90;;;;;;5042491;28;20928;-70
2022/01/15 14:07:14;;;;;;;16.97;6.13;;;3.50;99.90;;;;;;5053146;28;20224;-73
2022/01/15 14:10:09;;;;;;;19.13;6.40;;;3.40;99.90;;;;;;5053907;28;20650;-73
2022/01/15 14:13:05;;;;;;;19.27;6.23;;;3.40;99.90;;;;;;5053481;28;20213;-73
2022/01/15 14:15:54;;;;;;;19.73;6.13;;;3.40;99.90;;;;;;5057600;28;20228;-73
2022/01/15 14:18:46;;;;;;;16.20;5.50;;;3.30;99.90;;;;;;5057031;28;20228;-74
2022/01/15 14:21:51;;;;;;;14.13;5.87;;;3.40;99.90;;;;;;5055215;28;20355;-75
2022/01/15 14:24:40;;;;;;;17.63;6.20;;;3.40;99.90;;;;;;5039526;28;20293;-74
2022/01/15 14:27:29;;;;;;;22.47;7.00;;;3.30;99.90;;;;;;5058577;28;20442;-74
2022/01/15 14:30:17;;;;;;;20.17;6.30;;;3.30;99.90;;;;;;5057582;28;20218;-74
2022/01/15 14:33:06;;;;;;;16.63;6.67;;;3.20;99.90;;;;;;5057616;28;20228;-75
2022/01/15 14:35:58;;;;;;;20.97;6.50;;;3.20;99.90;;;;;;5057006;28;20549;-74
2022/01/15 14:38:47;;;;;;;20.27;7.47;;;3.20;99.90;;;;;;5056105;28;20218;-77
2022/01/15 14:41:37;;;;;;;24.23;7.00;;;3.10;99.90;;;;;;5058447;28;20688;-74
2022/01/15 14:44:29;;;;;;;14.90;6.33;;;3.10;99.90;;;;;;5055581;28;20216;-75
2022/01/15 14:47:18;;;;;;;19.43;6.77;;;3.10;99.90;;;;;;5055206;28;20220;-75
2022/01/15 14:50:07;;;;;;;20.37;6.50;;;3.10;99.90;;;;;;5039159;28;20228;-76
2022/01/15 14:52:57;;;;;;;23.37;7.57;;;3.20;99.90;;;;;;5056615;28;20223;-74
2022/01/15 14:55:47;;;;;;;26.90;8.00;;;3.20;99.90;;;;;;5054161;28;20307;-74
2022/01/15 14:58:35;;;;;;;18.20;6.87;;;3.10;99.90;;;;;;5040176;28;20217;-74
2022/01/15 15:01:24;;;;;;;22.10;7.73;;;3.20;99.90;;;;;;5056054;28;21182;-76
2022/01/15 15:04:13;;;;;;;16.63;7.70;;;3.20;99.90;;;;;;5040973;28;20217;-73